Time;durP1;ratioP1;P1;durP2;ratioP2;P2;SDS_P1;SDS_P2;PMS_P1;PMS_P2;Temp;Humidity;BMP_temperature;BMP_pressure;BME280_temperature;BME280_humidity;BME280_pressure;Samples;Min_cycle;Max_cycle;Signal;HPM_P1;HPM_P2
2022/10/02 00:02:11;;;;;;;8.40;5.57;;;13.00;99.90;;;;;;5025187;28;20021;-85
2022/10/02 00:04:53;;;;;;;5.97;5.00;;;13.00;99.90;;;;;;5017499;28;20029;-87
2022/10/02 00:07:22;;;;;;;7.47;5.13;;;13.00;99.90;;;;;;5027792;28;20101;-86
2022/10/02 00:09:58;;;;;;;6.28;5.05;;;13.00;99.90;;;;;;5028557;28;20479;-86
2022/10/02 00:12:28;;;;;;;7.00;5.45;;;13.00;99.90;;;;;;5018585;28;20049;-86
2022/10/02 00:15:01;;;;;;;7.18;4.85;;;12.90;99.90;;;;;;5036551;28;20060;-85
2022/10/02 00:17:38;;;;;;;8.25;4.38;;;12.90;99.90;;;;;;5036388;28;20018;-84
2022/10/02 00:20:15;;;;;;;5.22;4.55;;;12.90;99.90;;;;;;5027049;28;20041;-86
2022/10/02 00:23:09;;;;;;;5.63;4.13;;;12.90;99.90;;;;;;5003385;28;20060;-88
2022/10/02 00:25:42;;;;;;;5.47;4.30;;;13.00;99.90;;;;;;5022509;28;20029;-88
2022/10/02 00:28:11;;;;;;;6.55;4.60;;;13.10;99.90;;;;;;5001190;28;20113;-90
2022/10/02 00:31:03;;;;;;;5.07;4.30;;;13.20;99.90;;;;;;5024720;28;20100;-89
2022/10/02 00:34:20;;;;;;;6.40;4.43;;;13.30;99.90;;;;;;5005261;28;20034;-88
2022/10/02 00:37:15;;;;;;;5.63;4.82;;;13.30;99.90;;;;;;4934088;29;20035;-86
2022/10/02 00:39:54;;;;;;;9.82;5.57;;;13.20;99.90;;;;;;4937251;28;20043;-86
2022/10/02 00:42:26;;;;;;;6.28;4.00;;;13.20;99.90;;;;;;4935877;29;20051;-85
2022/10/02 00:45:15;;;;;;;5.13;4.00;;;13.20;99.90;;;;;;4936747;29;20031;-85
2022/10/02 00:48:11;;;;;;;5.18;4.00;;;13.20;99.90;;;;;;4936799;29;20646;-86
2022/10/02 00:50:42;;;;;;;6.13;4.30;;;13.20;99.90;;;;;;4942948;29;20031;-86
2022/10/02 00:53:32;;;;;;;4.50;3.67;;;13.10;99.90;;;;;;4953203;29;20572;-84
2022/10/02 00:56:06;;;;;;;5.75;4.00;;;13.10;99.90;;;;;;4943425;29;20576;-85
2022/10/02 00:58:43;;;;;;;5.65;3.58;;;13.00;99.90;;;;;;4950293;29;20044;-85
2022/10/02 01:01:12;;;;;;;4.18;3.45;;;12.90;99.90;;;;;;4943952;29;20072;-86
2022/10/02 01:03:45;;;;;;;4.70;3.13;;;12.80;99.90;;;;;;4956622;29;20031;-85
2022/10/02 01:06:11;;;;;;;4.95;3.95;;;12.70;99.90;;;;;;4968422;29;20064;-86
2022/10/02 01:08:38;;;;;;;7.97;3.60;;;12.60;99.90;;;;;;4944034;29;20023;-86
2022/10/02 01:11:05;;;;;;;4.95;3.70;;;12.60;99.90;;;;;;4943826;28;20072;-85
2022/10/02 01:13:32;;;;;;;4.78;3.25;;;12.50;99.90;;;;;;5032150;28;20034;-85
2022/10/02 01:16:02;;;;;;;4.27;3.70;;;12.40;99.90;;;;;;5014648;28;20053;-86
2022/10/02 01:18:29;;;;;;;6.22;3.65;;;12.40;99.90;;;;;;5009864;28;20033;-84
2022/10/02 01:21:09;;;;;;;5.15;3.95;;;12.30;99.90;;;;;;5010629;28;20143;-84
2022/10/02 01:23:38;;;;;;;4.85;4.05;;;12.20;99.90;;;;;;5040826;28;20133;-86
2022/10/02 01:26:05;;;;;;;5.35;3.80;;;12.20;99.90;;;;;;4995174;28;20117;-86
2022/10/02 01:28:31;;;;;;;4.70;3.75;;;12.10;99.90;;;;;;5030217;28;20014;-85
2022/10/02 01:31:03;;;;;;;4.28;3.72;;;12.10;99.90;;;;;;5016151;28;20036;-86
2022/10/02 01:33:30;;;;;;;4.82;3.15;;;12.00;99.90;;;;;;5015412;28;20112;-85
2022/10/02 01:35:56;;;;;;;4.15;3.08;;;12.10;99.90;;;;;;5034239;28;20025;-86
2022/10/02 01:38:23;;;;;;;3.33;2.88;;;12.10;99.90;;;;;;5034426;28;20084;-85
2022/10/02 01:40:49;;;;;;;4.28;3.20;;;12.10;99.90;;;;;;5054762;28;20021;-85
2022/10/02 01:43:25;;;;;;;3.80;2.45;;;12.10;99.90;;;;;;5023224;28;20380;-85
2022/10/02 01:46:16;;;;;;;4.68;3.03;;;12.00;99.90;;;;;;5004127;28;20041;-86
2022/10/02 01:49:05;;;;;;;5.78;2.80;;;12.00;99.90;;;;;;5017770;28;20124;-85
2022/10/02 01:51:55;;;;;;;4.68;3.25;;;12.00;99.90;;;;;;5010144;28;20037;-86
2022/10/02 01:54:27;;;;;;;5.53;2.97;;;12.10;99.90;;;;;;4988699;28;20029;-86
2022/10/02 01:56:58;;;;;;;4.32;2.78;;;12.00;99.90;;;;;;4998323;28;20070;-86
2022/10/02 01:59:48;;;;;;;3.95;3.00;;;12.10;99.90;;;;;;5007349;28;20049;-87
2022/10/02 02:02:32;;;;;;;3.20;2.50;;;12.10;99.90;;;;;;4983954;28;20022;-87
2022/10/02 02:05:17;;;;;;;3.70;2.88;;;12.10;99.90;;;;;;4988150;28;20042;-86
2022/10/02 02:08:13;;;;;;;6.43;2.08;;;12.20;99.90;;;;;;5013141;28;20034;-87
2022/10/02 02:10:51;;;;;;;;;;;12.20;99.90;;;;;;4982405;28;20065;-86
2022/10/02 02:13:27;;;;;;;2.80;1.95;;;12.30;99.90;;;;;;4983243;28;19932;-87
2022/10/02 02:16:23;;;;;;;3.55;2.28;;;12.20;99.90;;;;;;5000004;28;20092;-88
2022/10/02 02:18:58;;;;;;;3.30;2.25;;;12.30;99.90;;;;;;5010780;28;20121;-88
2022/10/02 02:21:38;;;;;;;2.42;1.65;;;12.30;99.90;;;;;;4998533;28;20026;-87
2022/10/02 02:24:13;;;;;;;3.55;2.05;;;12.30;99.90;;;;;;4974185;28;20125;-87
2022/10/02 02:26:42;;;;;;;2.40;1.77;;;12.30;99.90;;;;;;5016176;28;20068;-88
2022/10/02 02:29:09;;;;;;;2.50;1.73;;;12.40;99.90;;;;;;5019508;28;20061;-86
2022/10/02 02:31:58;;;;;;;1.63;1.30;;;12.40;99.90;;;;;;5039977;28;20044;-86
2022/10/02 02:34:32;;;;;;;5.10;2.17;;;12.40;99.90;;;;;;5038612;28;20037;-84
2022/10/02 02:37:07;;;;;;;2.17;1.60;;;12.40;99.90;;;;;;5016084;28;20030;-86
2022/10/02 02:39:42;;;;;;;1.98;1.58;;;12.40;99.90;;;;;;5036006;28;20029;-84
2022/10/02 02:42:09;;;;;;;2.80;2.30;;;12.40;99.90;;;;;;5025537;28;20053;-88
2022/10/02 02:44:43;;;;;;;3.28;1.83;;;12.40;99.90;;;;;;5015430;28;20032;-87
2022/10/02 02:47:34;;;;;;;1.58;1.15;;;12.40;99.90;;;;;;5009048;28;20026;-87
2022/10/02 02:50:27;;;;;;;3.28;1.65;;;12.40;99.90;;;;;;5007541;28;20786;-85
2022/10/02 02:53:14;;;;;;;2.35;1.35;;;12.40;99.90;;;;;;4993129;28;20488;-85
2022/10/02 02:55:57;;;;;;;3.30;1.23;;;12.40;99.90;;;;;;5015737;28;20022;-86
2022/10/02 02:58:40;;;;;;;2.63;1.70;;;12.40;99.90;;;;;;5004354;28;20308;-85
2022/10/02 03:01:06;;;;;;;1.95;1.45;;;12.30;99.90;;;;;;4964380;28;20023;-84
2022/10/02 03:03:32;;;;;;;5.45;1.60;;;12.30;99.90;;;;;;4988719;28;20033;-86
2022/10/02 03:06:17;;;;;;;1.75;1.27;;;12.30;99.90;;;;;;5005544;28;20018;-86
2022/10/02 03:08:46;;;;;;;2.05;1.48;;;12.40;99.90;;;;;;5012904;28;20041;-84
2022/10/02 03:11:23;;;;;;;2.42;1.55;;;12.40;99.90;;;;;;5016865;28;20028;-84
2022/10/02 03:14:08;;;;;;;3.20;1.25;;;12.40;99.90;;;;;;5019228;28;20060;-84
2022/10/02 03:16:56;;;;;;;1.73;1.13;;;12.40;99.90;;;;;;5001757;28;20039;-85
2022/10/02 03:19:30;;;;;;;3.92;1.30;;;12.30;99.90;;;;;;4994793;28;20033;-84
2022/10/02 03:22:19;;;;;;;2.33;1.30;;;12.30;99.90;;;;;;4985372;28;20026;-85
2022/10/02 03:24:56;;;;;;;2.08;1.33;;;12.30;99.90;;;;;;4971182;28;20527;-84
2022/10/02 03:27:34;;;;;;;1.25;1.13;;;12.20;99.90;;;;;;5008708;28;20022;-85
2022/10/02 03:30:07;;;;;;;1.75;1.10;;;12.20;99.90;;;;;;5001322;28;20113;-85
2022/10/02 03:32:35;;;;;;;1.48;1.17;;;12.20;99.90;;;;;;5025361;28;20022;-84
2022/10/02 03:35:05;;;;;;;2.17;1.00;;;12.20;99.90;;;;;;5004762;28;20046;-85
2022/10/02 03:37:31;;;;;;;1.55;1.30;;;12.20;99.90;;;;;;5031959;28;20033;-85
2022/10/02 03:39:59;;;;;;;3.27;1.13;;;12.20;99.90;;;;;;5019518;28;20118;-83
2022/10/02 03:42:28;;;;;;;0.98;0.75;;;12.10;99.90;;;;;;5004914;28;20038;-87
2022/10/02 03:44:54;;;;;;;1.58;0.60;;;12.10;99.90;;;;;;5018519;28;20102;-86
2022/10/02 03:47:20;;;;;;;1.52;0.90;;;12.10;99.90;;;;;;5000012;28;20046;-85
2022/10/02 03:49:45;;;;;;;3.45;0.90;;;12.10;99.90;;;;;;5016594;28;20022;-86
2022/10/02 03:52:16;;;;;;;0.73;0.45;;;12.10;99.90;;;;;;4999297;28;20414;-86
2022/10/02 03:54:43;;;;;;;0.68;0.57;;;12.10;99.90;;;;;;4999081;28;20026;-85
2022/10/02 03:57:19;;;;;;;0.80;0.60;;;12.00;99.80;;;;;;4994611;28;20539;-86
2022/10/02 04:00:06;;;;;;;1.70;0.90;;;12.00;99.90;;;;;;5015850;28;20097;-87
2022/10/02 04:02:51;;;;;;;1.90;0.50;;;12.00;99.90;;;;;;4998820;28;20057;-85
2022/10/02 04:05:23;;;;;;;3.90;0.85;;;12.00;99.80;;;;;;5019369;28;20037;-86
2022/10/02 04:07:53;;;;;;;0.70;0.50;;;12.00;99.80;;;;;;4997843;28;20049;-85
2022/10/02 04:10:35;;;;;;;0.73;0.43;;;12.00;99.50;;;;;;5016810;28;20040;-86
2022/10/02 04:13:22;;;;;;;0.65;0.35;;;11.90;99.50;;;;;;4983134;28;20018;-85
2022/10/02 04:16:12;;;;;;;1.25;0.40;;;11.90;99.80;;;;;;4996746;28;20078;-85
2022/10/02 04:19:16;;;;;;;1.00;0.68;;;11.90;99.50;;;;;;5016079;28;20108;-84
2022/10/02 04:21:47;;;;;;;0.80;0.38;;;11.80;99.30;;;;;;4926869;28;20062;-86
2022/10/02 04:24:18;;;;;;;1.25;0.50;;;11.80;98.80;;;;;;4994970;28;20026;-84
2022/10/02 04:26:55;;;;;;;0.38;0.30;;;11.80;99.20;;;;;;4993958;28;20026;-84
2022/10/02 04:29:23;;;;;;;;;;;11.80;99.30;;;;;;5017646;28;20026;-84
2022/10/02 04:32:13;;;;;;;1.13;0.50;;;11.70;99.20;;;;;;5033902;28;19916;-84
2022/10/02 04:34:40;;;;;;;0.20;0.20;;;11.70;99.00;;;;;;4980185;28;20431;-84
2022/10/02 04:37:37;;;;;;;1.05;0.70;;;11.80;98.60;;;;;;4999018;28;20448;-84
2022/10/02 04:40:05;;;;;;;1.08;0.50;;;11.80;98.40;;;;;;5001687;28;20050;-84
2022/10/02 04:42:57;;;;;;;1.75;0.30;;;11.80;98.20;;;;;;5003440;28;20049;-83
2022/10/02 04:45:57;;;;;;;1.63;0.30;;;11.80;98.00;;;;;;5018464;28;20041;-83
2022/10/02 04:48:47;;;;;;;0.68;0.30;;;11.80;97.60;;;;;;4995905;28;20033;-85
2022/10/02 04:51:40;;;;;;;2.47;0.40;;;11.80;97.30;;;;;;4993514;28;20056;-84
2022/10/02 04:54:21;;;;;;;0.73;0.40;;;11.70;97.20;;;;;;4997041;28;20544;-85
2022/10/02 04:57:25;;;;;;;1.65;0.60;;;11.70;97.50;;;;;;4979865;28;20484;-83
2022/10/02 05:00:14;;;;;;;0.73;0.57;;;11.90;97.70;;;;;;4907949;29;20509;-82
2022/10/02 05:03:01;;;;;;;2.22;0.60;;;11.90;97.70;;;;;;4936299;29;20501;-83
2022/10/02 05:06:11;;;;;;;0.52;0.50;;;12.00;97.40;;;;;;4935685;29;20047;-83
2022/10/02 05:08:43;;;;;;;0.50;0.30;;;12.00;97.20;;;;;;4926819;28;20511;-83
2022/10/02 05:11:12;;;;;;;1.60;0.25;;;12.00;96.90;;;;;;4937680;29;20109;-85
2022/10/02 05:13:53;;;;;;;2.08;0.43;;;12.00;96.90;;;;;;4949133;29;20046;-86
2022/10/02 05:16:19;;;;;;;1.23;0.73;;;11.90;96.60;;;;;;4940395;29;20032;-86
2022/10/02 05:19:23;;;;;;;2.15;0.90;;;11.90;97.10;;;;;;4952788;29;20075;-85
2022/10/02 05:22:15;;;;;;;4.40;0.80;;;11.90;97.20;;;;;;4945532;29;20428;-84
2022/10/02 05:25:19;;;;;;;1.30;0.52;;;12.00;97.20;;;;;;4929768;29;20072;-84
2022/10/02 05:28:10;;;;;;;3.25;0.60;;;12.00;97.30;;;;;;4942561;29;20019;-86
2022/10/02 05:31:13;;;;;;;0.95;0.45;;;12.00;97.10;;;;;;4912531;29;20464;-86
2022/10/02 05:33:48;;;;;;;1.17;0.63;;;12.00;96.90;;;;;;4919732;29;20143;-86
2022/10/02 05:36:43;;;;;;;0.85;0.57;;;12.00;96.70;;;;;;5000760;28;20037;-85
2022/10/02 05:39:33;;;;;;;2.17;0.65;;;12.00;96.80;;;;;;5003483;28;20118;-86
2022/10/02 05:42:37;;;;;;;0.52;0.50;;;12.00;96.80;;;;;;5000723;28;20474;-86
2022/10/02 05:45:13;;;;;;;1.40;0.63;;;12.00;96.50;;;;;;4978881;28;20106;-89
2022/10/02 05:47:45;;;;;;;2.25;0.73;;;12.00;96.50;;;;;;5000468;28;20563;-87
2022/10/02 05:50:11;;;;;;;1.45;0.80;;;12.00;96.10;;;;;;4996704;28;20495;-86
2022/10/02 05:52:59;;;;;;;0.43;0.43;;;12.00;96.50;;;;;;5002814;28;20015;-83
2022/10/02 05:55:51;;;;;;;5.03;0.75;;;12.00;96.70;;;;;;5026097;28;20014;-83
2022/10/02 05:58:30;;;;;;;1.35;0.63;;;12.00;96.80;;;;;;5025839;28;20497;-84
2022/10/02 06:01:08;;;;;;;0.82;0.45;;;11.90;96.40;;;;;;5011491;28;20034;-84
2022/10/02 06:03:52;;;;;;;1.67;0.40;;;11.80;96.30;;;;;;4973411;28;20038;-86
2022/10/02 06:06:40;;;;;;;0.75;0.52;;;11.80;96.70;;;;;;4993567;28;20066;-86
2022/10/02 06:09:19;;;;;;;0.22;0.13;;;11.70;96.50;;;;;;4983300;28;20084;-86
2022/10/02 06:12:05;;;;;;;0.43;0.43;;;11.60;96.10;;;;;;5000497;28;20041;-86
2022/10/02 06:14:45;;;;;;;0.23;0.23;;;11.40;96.60;;;;;;4997591;28;20056;-86
2022/10/02 06:17:25;;;;;;;1.58;0.50;;;11.40;96.60;;;;;;4997394;28;20082;-84
2022/10/02 06:20:17;;;;;;;0.57;0.40;;;11.40;96.80;;;;;;4984940;28;20045;-86
2022/10/02 06:22:51;;;;;;;0.80;0.60;;;11.50;96.80;;;;;;4989352;28;20911;-87
2022/10/02 06:25:42;;;;;;;0.90;0.28;;;11.60;96.20;;;;;;4984732;28;20014;-86
2022/10/02 06:28:20;;;;;;;0.98;0.60;;;11.50;96.30;;;;;;5014067;28;20092;-88
2022/10/02 06:30:58;;;;;;;0.32;0.32;;;11.50;96.40;;;;;;4997481;28;20491;-86
2022/10/02 06:33:27;;;;;;;1.25;0.77;;;11.60;96.50;;;;;;4996723;28;20022;-86
2022/10/02 06:36:17;;;;;;;1.23;0.75;;;11.70;96.50;;;;;;4999187;28;20037;-85
2022/10/02 06:38:59;;;;;;;0.93;0.65;;;11.80;96.50;;;;;;5001150;28;20518;-86
2022/10/02 06:41:37;;;;;;;1.45;0.70;;;11.90;96.30;;;;;;5016845;28;20037;-85
2022/10/02 06:44:16;;;;;;;0.70;0.43;;;12.00;96.10;;;;;;5027037;28;20017;-86
2022/10/02 06:46:53;;;;;;;1.25;0.40;;;12.00;95.90;;;;;;5026117;28;20033;-85
2022/10/02 06:49:36;;;;;;;0.43;0.40;;;11.80;96.20;;;;;;5010985;28;20025;-87
2022/10/02 06:52:15;;;;;;;0.98;0.47;;;11.70;96.40;;;;;;5005447;28;20057;-85
2022/10/02 06:55:14;;;;;;;1.60;0.50;;;11.50;96.70;;;;;;5013741;28;20031;-87
2022/10/02 06:58:07;;;;;;;2.13;0.43;;;11.40;96.80;;;;;;5011144;28;20087;-84
2022/10/02 07:00:44;;;;;;;0.47;0.40;;;11.30;97.30;;;;;;5045537;28;20021;-86
2022/10/02 07:03:38;;;;;;;2.10;0.40;;;11.30;97.70;;;;;;5028610;28;20072;-84
2022/10/02 07:06:25;;;;;;;1.20;0.52;;;11.30;97.50;;;;;;5000031;28;20443;-86
2022/10/02 07:09:18;;;;;;;0.70;0.33;;;11.40;97.00;;;;;;5033962;28;20045;-87
2022/10/02 07:12:05;;;;;;;3.90;0.70;;;11.40;97.20;;;;;;5027374;28;20030;-86
2022/10/02 07:14:49;;;;;;;1.80;0.60;;;11.50;97.10;;;;;;5011090;28;20057;-83
2022/10/02 07:17:53;;;;;;;1.08;0.47;;;11.60;96.90;;;;;;4999748;28;20029;-86
2022/10/02 07:20:51;;;;;;;3.45;0.70;;;11.70;97.00;;;;;;5047530;28;20033;-84
2022/10/02 07:23:26;;;;;;;2.35;1.58;;;11.90;96.90;;;;;;5032146;28;20014;-85
2022/10/02 07:26:03;;;;;;;2.72;1.17;;;12.20;96.50;;;;;;5014957;28;20028;-85
2022/10/02 07:28:45;;;;;;;1.05;0.70;;;12.60;95.90;;;;;;5027271;28;20013;-85
2022/10/02 07:31:28;;;;;;;3.67;1.50;;;13.00;95.00;;;;;;5021738;28;20044;-87
2022/10/02 07:34:29;;;;;;;1.60;0.70;;;13.40;94.60;;;;;;5022264;28;20125;-87
2022/10/02 07:37:12;;;;;;;3.38;1.10;;;13.90;93.70;;;;;;4995245;28;20038;-85
2022/10/02 07:40:05;;;;;;;1.92;0.73;;;14.60;92.60;;;;;;5021366;28;20054;-86
2022/10/02 07:42:40;;;;;;;0.63;0.52;;;15.00;90.40;;;;;;5019765;28;20506;-86
2022/10/02 07:45:25;;;;;;;1.70;0.88;;;15.60;89.20;;;;;;5027643;28;20061;-88
2022/10/02 07:48:01;;;;;;;1.60;1.05;;;16.80;87.20;;;;;;5031917;28;20371;-85
2022/10/02 07:50:39;;;;;;;0.73;0.40;;;18.10;81.20;;;;;;5003973;28;20644;-86
2022/10/02 07:53:23;;;;;;;2.60;0.95;;;19.10;75.20;;;;;;5000910;28;20685;-85
2022/10/02 07:55:53;;;;;;;1.95;1.00;;;19.30;72.00;;;;;;5019327;28;20022;-85
2022/10/02 07:58:36;;;;;;;2.45;0.80;;;20.00;68.50;;;;;;5011378;28;20072;-85
2022/10/02 08:01:06;;;;;;;2.90;1.15;;;20.20;66.50;;;;;;4996334;28;20030;-85
2022/10/02 08:03:50;;;;;;;1.30;0.75;;;19.70;66.60;;;;;;5002066;28;20030;-85
2022/10/02 08:06:17;;;;;;;1.73;0.52;;;18.80;67.60;;;;;;5011993;28;20018;-84
2022/10/02 08:09:15;;;;;;;2.10;0.52;;;18.00;68.60;;;;;;5027192;28;20026;-84
2022/10/02 08:11:52;;;;;;;1.35;0.75;;;17.30;71.00;;;;;;5027246;28;20040;-84
2022/10/02 08:14:45;;;;;;;0.55;0.50;;;16.80;71.50;;;;;;5037892;28;20057;-84
2022/10/02 08:17:34;;;;;;;1.63;0.82;;;16.00;74.00;;;;;;5004868;28;20558;-83
2022/10/02 08:20:14;;;;;;;1.25;0.80;;;15.40;76.80;;;;;;5029014;28;20380;-84
2022/10/02 08:22:45;;;;;;;1.60;0.80;;;15.40;79.00;;;;;;5033834;28;20145;-85
2022/10/02 08:25:38;;;;;;;1.95;1.15;;;16.30;78.00;;;;;;5029598;28;20109;-84
2022/10/02 08:28:27;;;;;;;2.67;1.20;;;18.40;75.60;;;;;;5033438;28;20414;-84
2022/10/02 08:30:53;;;;;;;3.00;1.05;;;20.40;67.60;;;;;;5020646;28;20021;-84
2022/10/02 08:33:21;;;;;;;3.53;0.93;;;21.20;62.20;;;;;;5028644;28;20075;-85
2022/10/02 08:36:03;;;;;;;1.48;1.00;;;21.30;60.70;;;;;;5029922;28;20089;-85
2022/10/02 08:38:41;;;;;;;2.55;1.10;;;21.90;59.90;;;;;;5018840;28;20090;-85
2022/10/02 08:41:37;;;;;;;1.92;1.20;;;22.80;57.20;;;;;;4999912;28;20022;-86
2022/10/02 08:44:24;;;;;;;1.55;0.50;;;23.90;55.90;;;;;;5007923;28;20496;-85
2022/10/02 08:46:57;;;;;;;2.42;1.17;;;22.90;54.40;;;;;;5009214;28;20029;-85
2022/10/02 08:49:38;;;;;;;3.22;0.95;;;21.70;56.20;;;;;;5006616;28;20014;-84
2022/10/02 08:52:22;;;;;;;1.77;0.60;;;21.10;58.00;;;;;;5019178;28;20390;-84
2022/10/02 08:54:59;;;;;;;1.75;1.05;;;20.60;58.90;;;;;;5036502;28;20487;-84
2022/10/02 08:57:43;;;;;;;4.77;1.33;;;19.90;59.80;;;;;;5023495;28;20026;-86
2022/10/02 09:00:23;;;;;;;3.20;0.98;;;18.80;62.20;;;;;;5011301;28;20291;-89
2022/10/02 09:03:23;;;;;;;2.85;1.33;;;17.90;64.50;;;;;;4988242;28;20026;-86
2022/10/02 09:06:26;;;;;;;3.55;0.85;;;17.30;67.40;;;;;;5006298;28;20117;-86
2022/10/02 09:09:14;;;;;;;2.25;1.00;;;16.80;68.50;;;;;;5025293;28;20086;-87
2022/10/02 09:12:20;;;;;;;0.93;0.60;;;16.30;70.20;;;;;;5033612;28;20018;-87
2022/10/02 09:15:00;;;;;;;1.45;1.05;;;16.00;70.90;;;;;;5019935;28;20380;-87
2022/10/02 09:17:31;;;;;;;1.92;1.38;;;15.80;72.70;;;;;;5034267;28;20180;-85
2022/10/02 09:20:16;;;;;;;2.97;1.50;;;15.50;74.00;;;;;;5013343;28;20049;-86
2022/10/02 09:23:19;;;;;;;1.85;1.52;;;15.40;74.90;;;;;;5018379;28;20002;-85
2022/10/02 09:25:52;;;;;;;2.22;1.42;;;15.30;75.60;;;;;;5033824;28;20021;-85
2022/10/02 09:29:15;;;;;;;3.78;1.48;;;15.10;76.60;;;;;;5024231;28;20109;-86
2022/10/02 09:31:53;;;;;;;2.63;1.63;;;15.10;76.80;;;;;;4940589;29;20028;-91
2022/10/02 09:35:15;;;;;;;2.95;1.77;;;15.10;77.70;;;;;;4938872;29;20055;-85
2022/10/02 09:38:13;;;;;;;2.50;1.50;;;15.00;78.10;;;;;;4952816;29;20075;-88
2022/10/02 09:40:58;;;;;;;1.45;0.90;;;14.90;78.90;;;;;;4940450;29;20528;-87
2022/10/02 09:43:51;;;;;;;3.00;1.08;;;14.90;79.20;;;;;;5015926;28;20394;-89
2022/10/02 09:46:43;;;;;;;2.15;1.20;;;15.00;79.90;;;;;;5015297;28;20093;-88
2022/10/02 09:49:24;;;;;;;5.82;2.63;;;15.10;79.60;;;;;;5009317;28;20502;-88
2022/10/02 09:52:03;;;;;;;2.00;1.27;;;15.00;79.60;;;;;;5034660;28;20438;-87
2022/10/02 09:54:59;;;;;;;2.33;1.00;;;15.00;80.40;;;;;;5011295;28;20511;-88
2022/10/02 09:57:48;;;;;;;1.40;1.05;;;14.90;79.40;;;;;;5027454;28;20073;-86
2022/10/02 10:00:42;;;;;;;3.72;1.42;;;14.60;79.90;;;;;;5024260;28;20034;-86
2022/10/02 10:03:13;;;;;;;3.67;1.52;;;14.30;82.00;;;;;;5016872;28;20515;-85
2022/10/02 10:05:52;;;;;;;4.40;1.70;;;14.10;82.40;;;;;;5005572;28;20029;-84
2022/10/02 10:08:55;;;;;;;3.60;1.30;;;13.90;83.60;;;;;;5007290;28;20058;-84
2022/10/02 10:11:31;;;;;;;1.52;1.00;;;14.00;84.00;;;;;;5031533;28;20074;-83
2022/10/02 10:14:24;;;;;;;2.13;1.30;;;14.00;83.40;;;;;;5004580;28;20026;-85
2022/10/02 10:17:20;;;;;;;2.03;1.20;;;13.90;84.00;;;;;;5016454;28;20018;-84
2022/10/02 10:20:15;;;;;;;1.90;1.48;;;13.80;84.10;;;;;;5005057;28;20176;-86
2022/10/02 10:22:51;;;;;;;1.73;1.20;;;13.90;85.40;;;;;;5021383;28;20468;-84
2022/10/02 10:25:30;;;;;;;1.52;1.13;;;14.20;84.30;;;;;;5006382;28;20079;-84
2022/10/02 10:28:21;;;;;;;3.78;2.17;;;14.40;83.80;;;;;;5028998;28;20056;-83
2022/10/02 10:31:37;;;;;;;2.72;1.08;;;14.60;83.40;;;;;;5024953;28;20025;-81
2022/10/02 10:34:06;;;;;;;;;;;14.70;82.70;;;;;;4999858;28;20030;-87
2022/10/02 10:40:08;;;;;;;2.35;1.10;;;14.60;82.80;;;;;;5021526;28;20513;-84
2022/10/02 10:43:06;;;;;;;1.98;0.93;;;14.60;81.90;;;;;;5021161;28;20046;-83
2022/10/02 10:45:50;;;;;;;1.95;1.40;;;14.40;83.10;;;;;;5016861;28;20018;-84
2022/10/02 10:48:19;;;;;;;3.15;1.92;;;14.40;82.80;;;;;;5031568;28;20032;-86
2022/10/02 10:51:03;;;;;;;3.13;1.48;;;14.50;83.80;;;;;;5006731;28;20033;-87
2022/10/02 10:53:57;;;;;;;1.15;1.05;;;14.80;81.60;;;;;;5023194;28;20022;-86
2022/10/02 10:56:43;;;;;;;2.47;1.83;;;14.50;80.90;;;;;;5005072;28;20449;-88
2022/10/02 10:59:33;;;;;;;1.60;1.15;;;14.40;82.70;;;;;;5030160;28;20119;-84
2022/10/02 11:02:12;;;;;;;1.77;1.17;;;14.60;81.80;;;;;;5021563;28;20105;-82
2022/10/02 11:04:57;;;;;;;2.25;1.38;;;14.50;81.80;;;;;;5002169;28;20491;-84
2022/10/02 11:07:59;;;;;;;1.73;1.33;;;14.50;81.90;;;;;;5007200;28;20423;-85
2022/10/02 11:10:55;;;;;;;4.32;1.30;;;14.60;82.10;;;;;;5036283;28;20027;-86
2022/10/02 11:14:12;;;;;;;1.88;1.10;;;14.70;80.80;;;;;;5039618;28;20002;-87
2022/10/02 11:16:59;;;;;;;2.45;1.10;;;14.40;80.50;;;;;;4939415;29;20035;-85
2022/10/02 11:19:48;;;;;;;;;;;14.30;81.60;;;;;;4932344;29;20040;-89
2022/10/02 11:22:32;;;;;;;2.33;1.30;;;14.60;82.20;;;;;;4934871;29;19907;-88
2022/10/02 11:25:24;;;;;;;5.28;1.27;;;14.70;80.90;;;;;;4937332;29;20104;-88
2022/10/02 11:28:20;;;;;;;3.70;1.30;;;14.70;80.90;;;;;;4941789;29;20099;-89
2022/10/02 11:30:53;;;;;;;;;;;14.60;81.20;;;;;;4921502;29;20107;-88
2022/10/02 11:33:28;;;;;;;4.35;2.15;;;14.60;81.40;;;;;;4931056;29;19969;-88
2022/10/02 11:36:25;;;;;;;3.75;2.10;;;14.50;82.00;;;;;;4932084;29;20062;-90
2022/10/02 11:39:07;;;;;;;4.18;3.42;;;14.60;80.90;;;;;;4909946;29;20040;-86
2022/10/02 11:41:53;;;;;;;5.30;3.50;;;14.60;80.80;;;;;;4917096;29;20047;-88
2022/10/02 11:44:28;;;;;;;3.20;2.05;;;14.50;80.90;;;;;;4894964;29;20056;-85
2022/10/02 11:47:06;;;;;;;3.08;2.10;;;14.40;80.60;;;;;;4923637;29;20036;-88
2022/10/02 11:49:48;;;;;;;;;;;14.30;81.40;;;;;;4922710;28;20030;-88
2022/10/02 11:52:33;;;;;;;2.35;1.58;;;14.30;81.80;;;;;;5022277;28;19916;-89
2022/10/02 11:55:27;;;;;;;7.22;4.72;;;14.30;82.20;;;;;;5021097;28;20064;-89
2022/10/02 11:58:12;;;;;;;4.75;2.63;;;14.30;82.40;;;;;;5018541;28;20027;-86
2022/10/02 12:01:04;;;;;;;3.45;1.50;;;14.40;82.30;;;;;;5023575;28;20042;-82
2022/10/02 12:04:01;;;;;;;4.20;1.88;;;14.50;81.70;;;;;;5017745;28;20084;-85
2022/10/02 12:06:47;;;;;;;3.08;1.23;;;14.60;82.50;;;;;;5027921;28;20037;-84
2022/10/02 12:09:21;;;;;;;3.80;1.73;;;14.60;80.50;;;;;;5021250;28;20431;-87
2022/10/02 12:12:01;;;;;;;3.20;1.60;;;14.60;81.50;;;;;;5016821;28;20034;-84
2022/10/02 12:14:33;;;;;;;3.90;2.65;;;14.50;80.70;;;;;;5017677;28;20018;-87
2022/10/02 12:17:39;;;;;;;4.40;1.88;;;14.50;82.10;;;;;;5015324;28;20045;-85
2022/10/02 12:29:55;;;;;;;3.13;1.17;;;14.30;81.60;;;;;;5008784;28;20578;-84
2022/10/02 12:32:40;;;;;;;7.25;2.92;;;14.30;80.80;;;;;;5000035;28;20021;-85
2022/10/02 12:35:22;;;;;;;1.70;1.17;;;14.20;81.20;;;;;;5018307;28;20060;-84
2022/10/02 12:37:59;;;;;;;4.53;1.67;;;14.10;80.80;;;;;;4999236;28;20573;-85
2022/10/02 12:40:40;;;;;;;2.95;1.77;;;13.90;81.50;;;;;;5015794;28;20041;-87
2022/10/02 12:43:39;;;;;;;2.47;1.60;;;13.80;82.30;;;;;;4999074;28;20190;-87
2022/10/02 12:46:24;;;;;;;2.08;1.23;;;13.70;82.20;;;;;;5014367;28;20029;-87
2022/10/02 12:49:20;;;;;;;2.53;1.60;;;13.50;82.80;;;;;;5026201;28;20022;-86
2022/10/02 12:52:20;;;;;;;2.22;1.48;;;13.40;83.40;;;;;;5026195;28;20080;-86
2022/10/02 12:55:10;;;;;;;1.63;1.23;;;13.20;84.20;;;;;;5005454;28;20034;-87
2022/10/02 12:58:01;;;;;;;2.17;1.40;;;13.10;84.70;;;;;;4999885;28;20121;-86
2022/10/02 13:00:40;;;;;;;3.45;1.67;;;13.00;85.40;;;;;;5029993;28;20033;-86
2022/10/02 13:03:45;;;;;;;6.18;2.22;;;13.00;85.50;;;;;;5008331;28;20562;-85
2022/10/02 13:06:46;;;;;;;6.35;2.38;;;13.00;85.60;;;;;;5019578;28;20022;-83
2022/10/02 13:09:29;;;;;;;5.68;1.85;;;13.00;85.90;;;;;;5022177;28;20025;-84
2022/10/02 13:12:10;;;;;;;7.00;1.80;;;13.10;86.30;;;;;;5006393;28;20049;-80
2022/10/02 13:15:23;;;;;;;3.88;2.42;;;13.10;85.70;;;;;;5030172;28;20033;-84
2022/10/02 13:17:58;;;;;;;3.63;2.10;;;13.20;85.70;;;;;;4925134;29;20037;-88
2022/10/02 13:20:43;;;;;;;2.90;1.98;;;13.30;85.40;;;;;;5012169;28;20042;-84
2022/10/02 13:23:46;;;;;;;2.50;1.75;;;13.30;85.30;;;;;;5030089;28;20017;-87
2022/10/02 13:26:21;;;;;;;4.25;1.83;;;13.40;85.40;;;;;;5022535;28;20541;-86
2022/10/02 13:29:11;;;;;;;6.40;2.42;;;13.50;84.70;;;;;;5016479;28;20037;-87
2022/10/02 13:31:58;;;;;;;3.83;2.75;;;13.60;84.50;;;;;;5024484;28;20033;-86
2022/10/02 13:35:05;;;;;;;3.65;2.00;;;13.60;85.50;;;;;;5034090;28;20033;-85
2022/10/02 13:37:33;;;;;;;2.60;1.80;;;13.60;85.70;;;;;;5017275;28;20058;-88
2022/10/02 13:40:27;;;;;;;6.75;2.15;;;13.50;83.80;;;;;;5000942;28;20029;-87
2022/10/02 13:43:11;;;;;;;3.28;2.10;;;13.30;83.90;;;;;;4997779;28;20049;-89
2022/10/02 13:45:49;;;;;;;7.10;2.13;;;13.20;84.40;;;;;;5004732;28;20026;-85
2022/10/02 13:48:54;;;;;;;3.75;2.13;;;13.20;84.50;;;;;;5017012;28;20502;-90
2022/10/02 13:51:39;;;;;;;5.47;2.33;;;13.10;85.10;;;;;;5014249;28;20021;-91
2022/10/02 13:54:15;;;;;;;5.88;2.40;;;13.10;86.40;;;;;;5020600;28;20028;-88
2022/10/02 13:56:59;;;;;;;4.40;1.88;;;13.10;85.40;;;;;;5033149;28;20022;-88
2022/10/02 13:59:25;;;;;;;4.15;2.35;;;13.10;85.60;;;;;;5044633;28;20065;-89
2022/10/02 14:02:38;;;;;;;8.40;3.25;;;13.10;85.70;;;;;;5019860;28;20063;-90
2022/10/02 14:05:41;;;;;;;9.40;3.03;;;13.20;86.10;;;;;;5013243;28;20038;-90
2022/10/02 14:08:19;;;;;;;5.75;3.08;;;13.20;85.70;;;;;;5030007;28;20083;-88
2022/10/02 14:11:05;;;;;;;6.85;3.15;;;13.20;85.70;;;;;;5042182;28;20021;-90
2022/10/02 14:14:01;;;;;;;4.28;2.92;;;13.20;86.30;;;;;;5007436;28;20026;-87
2022/10/02 14:16:59;;;;;;;3.85;2.60;;;13.20;85.80;;;;;;4997085;28;20037;-87
2022/10/02 14:19:41;;;;;;;5.43;3.03;;;13.20;86.30;;;;;;5034577;28;20025;-88
2022/10/02 14:22:27;;;;;;;6.07;2.80;;;13.20;85.80;;;;;;5018566;28;20026;-88
2022/10/02 14:25:14;;;;;;;9.98;3.17;;;13.10;86.10;;;;;;5016078;28;20017;-88